Time;durP1;ratioP1;P1;durP2;ratioP2;P2;SDS_P1;SDS_P2;PMS_P1;PMS_P2;Temp;Humidity;BMP_temperature;BMP_pressure;BME280_temperature;BME280_humidity;BME280_pressure;Samples;Min_cycle;Max_cycle;Signal;HPM_P1;HPM_P2
2022/01/15 00:02:05;;;;;;;24.80;10.98;;;3.70;82.00;;;;;;4999319;28;20057;-75
2022/01/15 00:04:31;;;;;;;23.60;10.32;;;3.70;81.80;;;;;;4996065;28;20069;-76
2022/01/15 00:06:56;;;;;;;26.40;12.32;;;3.70;82.10;;;;;;5008694;28;20022;-75
2022/01/15 00:09:22;;;;;;;22.63;10.32;;;3.80;82.00;;;;;;5008211;28;20458;-76
2022/01/15 00:11:48;;;;;;;25.10;11.63;;;3.70;81.80;;;;;;5005945;28;20034;-75
2022/01/15 00:14:26;;;;;;;23.48;11.48;;;3.80;82.00;;;;;;4999885;28;20429;-75
2022/01/15 00:17:06;;;;;;;24.63;11.30;;;3.70;81.30;;;;;;4996015;28;20041;-76
2022/01/15 00:19:43;;;;;;;23.38;10.82;;;3.70;81.70;;;;;;4996413;28;20030;-75
2022/01/15 00:22:13;;;;;;;23.80;10.98;;;3.70;81.90;;;;;;4996354;28;20029;-75
2022/01/15 00:24:39;;;;;;;26.15;11.98;;;3.80;81.60;;;;;;4995561;28;20026;-75
2022/01/15 00:27:05;;;;;;;22.88;10.63;;;3.70;81.40;;;;;;4994541;28;20025;-75
2022/01/15 00:29:32;;;;;;;24.48;10.60;;;3.70;81.50;;;;;;5000950;28;20030;-75
2022/01/15 00:31:59;;;;;;;24.20;10.80;;;3.80;81.90;;;;;;5001325;28;20044;-76
2022/01/15 00:34:26;;;;;;;19.63;9.65;;;3.80;81.60;;;;;;4995967;28;20058;-75
2022/01/15 00:36:52;;;;;;;22.00;9.93;;;3.70;81.60;;;;;;4996212;28;20508;-75
2022/01/15 00:39:17;;;;;;;21.98;9.88;;;3.70;81.60;;;;;;4993784;28;20057;-75
2022/01/15 00:41:43;;;;;;;23.17;10.25;;;3.70;81.30;;;;;;4996972;28;20389;-75
2022/01/15 00:44:08;;;;;;;23.95;11.40;;;3.70;81.60;;;;;;5008779;28;20072;-76
2022/01/15 00:46:34;;;;;;;24.55;11.77;;;3.60;81.20;;;;;;5008791;28;20056;-75
2022/01/15 00:49:00;;;;;;;25.30;11.02;;;3.70;81.90;;;;;;5009272;28;20026;-75
2022/01/15 00:51:25;;;;;;;21.35;10.45;;;3.60;81.30;;;;;;5008850;28;20484;-75
2022/01/15 00:53:51;;;;;;;24.08;11.80;;;3.50;81.60;;;;;;5001317;28;20026;-74
2022/01/15 00:56:17;;;;;;;21.08;10.13;;;3.60;81.90;;;;;;4998576;28;20045;-75
2022/01/15 00:58:43;;;;;;;20.95;9.98;;;3.60;81.80;;;;;;4999440;28;20096;-75
2022/01/15 01:01:08;;;;;;;25.88;11.35;;;3.60;81.60;;;;;;4995325;28;20030;-74
2022/01/15 01:03:34;;;;;;;22.67;10.77;;;3.60;81.70;;;;;;4993891;28;20041;-74
2022/01/15 01:06:00;;;;;;;22.40;10.43;;;3.60;81.60;;;;;;4994105;28;20026;-75
2022/01/15 01:08:25;;;;;;;21.35;10.23;;;3.70;82.00;;;;;;4995496;28;20065;-75
2022/01/15 01:24:19;;;;;;;22.83;9.55;;;3.70;81.50;;;;;;5008912;28;20072;-75
2022/01/15 01:27:10;;;;;;;21.67;9.95;;;3.70;81.50;;;;;;4995132;28;20031;-76
2022/01/15 01:32:11;;;;;;;22.90;10.18;;;3.70;81.40;;;;;;5000385;28;20042;-75
2022/01/15 01:34:40;;;;;;;24.58;11.30;;;3.70;81.60;;;;;;4993733;28;20139;-75
2022/01/15 01:44:40;;;;;;;23.15;10.75;;;3.70;81.30;;;;;;4994768;28;20030;-75
2022/01/15 01:47:15;;;;;;;23.42;10.18;;;3.70;81.30;;;;;;4993652;28;20029;-75
2022/01/15 01:49:42;;;;;;;23.33;10.50;;;3.70;81.40;;;;;;4994858;28;20182;-75
2022/01/15 01:52:09;;;;;;;26.58;11.32;;;3.70;81.60;;;;;;4995038;28;20416;-75
2022/01/15 01:54:35;;;;;;;24.90;11.75;;;3.70;81.50;;;;;;4992212;28;20045;-75
2022/01/15 01:57:01;;;;;;;24.42;11.13;;;3.70;81.60;;;;;;4995409;28;20030;-75
2022/01/15 01:59:27;;;;;;;24.77;11.00;;;3.70;81.70;;;;;;4996603;28;20518;-75
2022/01/15 02:01:53;;;;;;;22.33;10.70;;;3.70;81.50;;;;;;4994927;28;20134;-76
2022/01/15 02:04:18;;;;;;;23.15;10.60;;;3.70;81.70;;;;;;4995978;28;20544;-75
2022/01/15 02:06:44;;;;;;;20.95;9.63;;;3.70;82.20;;;;;;4997547;28;20030;-75
2022/01/15 02:09:10;;;;;;;20.20;9.82;;;3.80;81.80;;;;;;4999774;28;20037;-75
2022/01/15 02:11:39;;;;;;;23.95;10.45;;;3.70;81.40;;;;;;5013979;28;20041;-75
2022/01/15 02:14:04;;;;;;;22.85;9.45;;;3.70;81.30;;;;;;5003379;28;20480;-75
2022/01/15 02:16:30;;;;;;;21.88;10.30;;;3.60;81.40;;;;;;4998843;28;20077;-74
2022/01/15 02:18:56;;;;;;;22.17;10.35;;;3.60;81.60;;;;;;4998672;28;20026;-75
2022/01/15 02:24:06;;;;;;;22.45;9.63;;;3.60;81.30;;;;;;5000711;28;20026;-75
2022/01/15 02:26:34;;;;;;;23.17;9.65;;;3.60;81.00;;;;;;5010735;28;20034;-75
2022/01/15 02:29:01;;;;;;;20.85;9.90;;;3.60;81.50;;;;;;5006701;28;20018;-74
2022/01/15 02:31:28;;;;;;;20.20;9.55;;;3.60;81.00;;;;;;4999786;28;20038;-75
2022/01/15 02:33:56;;;;;;;22.63;10.00;;;3.50;81.00;;;;;;4997819;28;20026;-74
2022/01/15 02:36:28;;;;;;;21.20;9.70;;;3.50;81.00;;;;;;4998638;28;20034;-75
2022/01/15 02:38:54;;;;;;;20.60;9.63;;;3.50;81.20;;;;;;4999638;28;20084;-74
2022/01/15 02:41:29;;;;;;;23.25;10.73;;;3.50;81.50;;;;;;5000579;28;20023;-75
2022/01/15 02:43:56;;;;;;;21.83;10.13;;;3.50;81.70;;;;;;4998390;28;20117;-75
2022/01/15 02:48:52;;;;;;;21.05;9.80;;;3.60;81.50;;;;;;4998402;28;20400;-75
2022/01/15 02:51:20;;;;;;;24.83;10.77;;;3.60;81.40;;;;;;4995419;28;20029;-75
2022/01/15 02:53:47;;;;;;;22.85;10.90;;;3.60;81.70;;;;;;4997639;28;20018;-75
2022/01/15 02:56:13;;;;;;;25.05;11.68;;;3.60;81.50;;;;;;4997651;28;20053;-75
2022/01/15 02:58:38;;;;;;;24.73;10.40;;;3.60;81.30;;;;;;5001750;28;20500;-75
2022/01/15 03:01:06;;;;;;;25.85;12.05;;;3.60;81.60;;;;;;4997635;28;20053;-75
2022/01/15 03:03:33;;;;;;;25.80;11.30;;;3.60;81.50;;;;;;4995975;28;20030;-75
2022/01/15 03:05:58;;;;;;;25.95;10.88;;;3.60;81.70;;;;;;4995547;28;20670;-75
2022/01/15 03:08:24;;;;;;;27.90;12.25;;;3.60;81.70;;;;;;4996571;28;20034;-75
2022/01/15 03:10:50;;;;;;;24.90;11.23;;;3.60;81.70;;;;;;4997336;28;20030;-75
2022/01/15 03:13:16;;;;;;;25.33;11.35;;;3.70;81.90;;;;;;4997688;28;20026;-75
2022/01/15 03:15:43;;;;;;;23.83;10.52;;;3.70;81.50;;;;;;4996239;28;20064;-75
2022/01/15 03:18:08;;;;;;;24.45;10.65;;;3.70;81.30;;;;;;4995355;28;20034;-75
2022/01/15 03:20:34;;;;;;;23.83;10.40;;;3.60;81.30;;;;;;4997359;28;20176;-75
2022/01/15 03:23:00;;;;;;;24.90;10.73;;;3.50;81.30;;;;;;4997485;28;20034;-75
2022/01/15 03:25:26;;;;;;;26.58;11.43;;;3.50;81.40;;;;;;4996973;28;20049;-75
2022/01/15 03:27:54;;;;;;;21.88;10.25;;;3.60;81.50;;;;;;4997153;28;20389;-75
2022/01/15 03:30:20;;;;;;;22.52;9.77;;;3.60;81.40;;;;;;5006141;28;20040;-75
2022/01/15 03:32:45;;;;;;;22.40;9.75;;;3.60;81.50;;;;;;4996989;28;20038;-75
2022/01/15 03:35:14;;;;;;;20.25;9.75;;;3.60;81.60;;;;;;4997118;28;20057;-75
2022/01/15 03:37:40;;;;;;;24.48;11.35;;;3.60;81.60;;;;;;4997297;28;20045;-75
2022/01/15 03:40:08;;;;;;;22.73;10.05;;;3.60;81.30;;;;;;4996808;28;20165;-75
2022/01/15 03:42:34;;;;;;;20.92;9.45;;;3.60;81.20;;;;;;4995751;28;20030;-75
2022/01/15 03:45:00;;;;;;;20.27;8.82;;;3.60;81.30;;;;;;4996096;28;20097;-75
2022/01/15 03:47:26;;;;;;;21.42;10.05;;;3.60;81.30;;;;;;4997016;28;20090;-75
2022/01/15 03:49:51;;;;;;;19.17;9.25;;;3.60;81.20;;;;;;4996758;28;20038;-75
2022/01/15 03:52:17;;;;;;;24.08;10.30;;;3.60;81.10;;;;;;4996890;28;20444;-75
2022/01/15 03:54:43;;;;;;;20.98;9.32;;;3.50;81.00;;;;;;4996384;28;20026;-75
2022/01/15 03:57:08;;;;;;;22.23;10.20;;;3.50;81.20;;;;;;4997947;28;20025;-77
2022/01/15 03:59:34;;;;;;;20.35;10.07;;;3.60;81.40;;;;;;4997507;28;20034;-75
2022/01/15 04:02:00;;;;;;;24.35;10.35;;;3.60;81.30;;;;;;4996812;28;20044;-76
2022/01/15 04:04:26;;;;;;;23.05;10.25;;;3.50;81.20;;;;;;4996673;28;20031;-76
2022/01/15 04:06:51;;;;;;;22.02;9.75;;;3.60;81.60;;;;;;4996914;28;20227;-75
2022/01/15 04:09:17;;;;;;;23.55;9.93;;;3.60;81.30;;;;;;5011810;28;20116;-76
2022/01/15 04:11:43;;;;;;;26.25;10.38;;;3.60;81.10;;;;;;4999147;28;20097;-76
2022/01/15 04:14:09;;;;;;;22.35;9.55;;;3.50;81.00;;;;;;4999323;28;20077;-76
2022/01/15 04:16:35;;;;;;;23.10;9.93;;;3.50;80.90;;;;;;4999287;28;20505;-76
2022/01/15 04:19:01;;;;;;;22.73;10.43;;;3.50;81.30;;;;;;4996772;28;20030;-76
2022/01/15 04:21:27;;;;;;;25.05;11.07;;;3.50;81.40;;;;;;4996890;28;20500;-76
2022/01/15 04:23:53;;;;;;;24.38;10.55;;;3.50;81.10;;;;;;4997990;28;20022;-76
2022/01/15 04:26:23;;;;;;;24.67;10.45;;;3.50;81.00;;;;;;4997720;28;20037;-76
2022/01/15 04:28:50;;;;;;;21.08;9.45;;;3.40;81.10;;;;;;4999064;28;20388;-77
2022/01/15 04:31:17;;;;;;;20.73;9.70;;;3.40;81.30;;;;;;4998544;28;20089;-76
2022/01/15 04:33:43;;;;;;;22.38;9.13;;;3.40;81.20;;;;;;4994592;28;20464;-76
2022/01/15 04:36:09;;;;;;;22.63;9.80;;;3.40;81.40;;;;;;5009100;28;20124;-76
2022/01/15 04:38:37;;;;;;;24.63;9.85;;;3.40;81.30;;;;;;4996186;28;20037;-76
2022/01/15 04:41:04;;;;;;;24.75;10.57;;;3.40;81.60;;;;;;4996009;28;20027;-76
2022/01/15 04:43:30;;;;;;;18.52;8.85;;;3.40;81.20;;;;;;4996320;28;20054;-77
2022/01/15 04:45:56;;;;;;;25.83;10.05;;;3.50;81.50;;;;;;4996346;28;20127;-77
2022/01/15 04:48:21;;;;;;;24.08;10.00;;;3.50;81.50;;;;;;4993989;28;20031;-77
2022/01/15 04:50:47;;;;;;;23.25;9.88;;;3.40;81.30;;;;;;4995400;28;20133;-77
2022/01/15 04:53:13;;;;;;;21.88;9.85;;;3.40;81.20;;;;;;4995434;28;20480;-76
2022/01/15 04:55:38;;;;;;;22.42;10.40;;;3.40;81.60;;;;;;4996003;28;20105;-77
2022/01/15 04:58:06;;;;;;;19.85;8.90;;;3.50;81.70;;;;;;5001189;28;20034;-76
2022/01/15 05:00:32;;;;;;;23.92;9.93;;;3.50;81.60;;;;;;4995740;28;20619;-76
2022/01/15 05:02:58;;;;;;;20.73;9.45;;;3.50;81.50;;;;;;4997614;28;20100;-76
2022/01/15 05:05:25;;;;;;;21.55;9.68;;;3.50;81.60;;;;;;4996751;28;20058;-76
2022/01/15 05:07:53;;;;;;;19.65;9.00;;;3.40;81.30;;;;;;4998214;28;20033;-76
2022/01/15 05:10:23;;;;;;;20.52;9.10;;;3.40;81.30;;;;;;4998381;28;20073;-76
2022/01/15 05:12:49;;;;;;;20.50;8.93;;;3.40;81.50;;;;;;4994459;28;20141;-77
2022/01/15 05:15:18;;;;;;;23.40;10.20;;;3.30;81.90;;;;;;4996948;28;20440;-76
2022/01/15 05:17:45;;;;;;;23.02;10.23;;;3.30;82.30;;;;;;4998995;28;20035;-76
2022/01/15 05:20:12;;;;;;;21.10;9.35;;;3.30;82.30;;;;;;4994927;28;20014;-76
2022/01/15 05:22:39;;;;;;;21.42;9.40;;;3.20;81.80;;;;;;4995441;28;20543;-77
2022/01/15 05:25:09;;;;;;;23.45;9.88;;;3.20;82.30;;;;;;4996816;28;20101;-76
2022/01/15 05:27:36;;;;;;;23.23;9.88;;;3.20;82.40;;;;;;4994972;28;20018;-76
2022/01/15 05:30:06;;;;;;;21.85;9.82;;;3.20;82.70;;;;;;5003281;28;20033;-76
2022/01/15 05:32:33;;;;;;;22.60;9.68;;;3.20;82.40;;;;;;4996374;28;20416;-76
2022/01/15 05:34:58;;;;;;;26.23;10.48;;;3.10;82.60;;;;;;4994571;28;20081;-76
2022/01/15 05:37:24;;;;;;;20.45;9.27;;;3.10;82.90;;;;;;4995411;28;20034;-76
2022/01/15 05:39:50;;;;;;;25.10;10.23;;;3.10;83.00;;;;;;4994835;28;20038;-76
2022/01/15 05:42:16;;;;;;;27.20;11.23;;;3.20;83.50;;;;;;4992510;28;20113;-76
2022/01/15 05:44:41;;;;;;;25.30;10.90;;;3.30;83.50;;;;;;4998143;28;20026;-76
2022/01/15 05:47:08;;;;;;;25.60;10.43;;;3.30;83.40;;;;;;4997803;28;20096;-76
2022/01/15 05:49:34;;;;;;;25.80;11.20;;;3.40;83.20;;;;;;4997344;28;20030;-77
2022/01/15 05:52:00;;;;;;;25.83;11.40;;;3.30;83.00;;;;;;4995604;28;20030;-76
2022/01/15 05:54:26;;;;;;;26.52;11.55;;;3.40;83.10;;;;;;4993896;28;20030;-76
2022/01/15 05:56:52;;;;;;;23.00;10.32;;;3.30;83.00;;;;;;4997874;28;20018;-76
2022/01/15 05:59:17;;;;;;;27.05;11.38;;;3.20;83.00;;;;;;4997714;28;20571;-77
2022/01/15 06:01:43;;;;;;;27.20;11.57;;;3.20;83.10;;;;;;4994709;28;20382;-76
2022/01/15 06:04:09;;;;;;;28.83;12.00;;;3.20;83.40;;;;;;4993272;28;20049;-76
2022/01/15 06:06:34;;;;;;;25.25;10.23;;;3.10;83.20;;;;;;4993064;28;20026;-76
2022/01/15 06:09:02;;;;;;;26.55;11.70;;;3.10;83.30;;;;;;4993815;28;20369;-77
2022/01/15 06:11:28;;;;;;;26.42;11.43;;;3.10;83.40;;;;;;4994806;28;20022;-76
2022/01/15 06:13:53;;;;;;;28.25;12.50;;;3.10;83.50;;;;;;4994680;28;20034;-76
2022/01/15 06:16:19;;;;;;;31.08;12.48;;;3.10;83.40;;;;;;4995031;28;20029;-76
2022/01/15 06:18:45;;;;;;;30.92;12.38;;;3.00;83.80;;;;;;4994123;28;20403;-76
2022/01/15 06:21:10;;;;;;;26.90;12.07;;;3.10;83.90;;;;;;4992113;28;20026;-76
2022/01/15 06:23:36;;;;;;;28.95;12.25;;;3.10;84.50;;;;;;4994923;28;20497;-76
2022/01/15 06:26:02;;;;;;;28.55;12.32;;;3.10;84.50;;;;;;4994918;28;20374;-76
2022/01/15 06:28:28;;;;;;;30.00;12.35;;;3.10;84.00;;;;;;4993484;28;20089;-76
2022/01/15 06:30:53;;;;;;;28.42;11.98;;;3.20;84.20;;;;;;5005518;28;20057;-76
2022/01/15 06:33:19;;;;;;;25.45;10.73;;;3.10;84.40;;;;;;4991942;28;20138;-76
2022/01/15 06:35:45;;;;;;;27.08;11.48;;;3.10;84.50;;;;;;4994296;28;20623;-76
2022/01/15 06:38:10;;;;;;;24.98;11.40;;;3.20;84.60;;;;;;4994690;28;20030;-76
2022/01/15 06:40:36;;;;;;;23.42;10.07;;;3.20;84.70;;;;;;4994680;28;20030;-76
2022/01/15 06:43:02;;;;;;;28.20;10.75;;;3.20;84.70;;;;;;4993334;28;20061;-76
2022/01/15 06:45:29;;;;;;;28.67;12.05;;;3.20;84.70;;;;;;4991350;28;20031;-76
2022/01/15 06:47:55;;;;;;;23.88;10.38;;;3.20;84.70;;;;;;4993709;28;20105;-76
2022/01/15 06:50:23;;;;;;;23.90;10.35;;;3.20;84.50;;;;;;4995032;28;20117;-76
2022/01/15 06:52:49;;;;;;;25.35;11.13;;;3.10;84.90;;;;;;4998096;28;20038;-76
2022/01/15 06:55:15;;;;;;;22.15;9.77;;;3.20;85.10;;;;;;4998091;28;20041;-76
2022/01/15 06:57:40;;;;;;;23.88;9.88;;;3.10;85.50;;;;;;4999415;28;20120;-76
2022/01/15 07:00:09;;;;;;;24.38;9.95;;;3.00;85.50;;;;;;4999797;28;20054;-76
2022/01/15 07:02:34;;;;;;;25.02;9.85;;;3.10;85.90;;;;;;5000433;28;20568;-76
2022/01/15 07:05:00;;;;;;;29.33;12.05;;;3.20;85.70;;;;;;5000145;28;20202;-76
2022/01/15 07:07:26;;;;;;;24.27;10.02;;;3.20;85.80;;;;;;5000519;28;20037;-76
2022/01/15 07:09:52;;;;;;;23.45;9.70;;;3.20;85.60;;;;;;4996784;28;20030;-76
2022/01/15 07:12:17;;;;;;;24.42;9.65;;;3.20;85.70;;;;;;4997911;28;20392;-76
2022/01/15 07:14:43;;;;;;;21.15;8.65;;;3.30;85.80;;;;;;4999839;28;20077;-75
2022/01/15 07:17:10;;;;;;;21.65;8.93;;;3.30;85.60;;;;;;5000163;28;20026;-75
2022/01/15 07:19:36;;;;;;;23.02;10.05;;;3.30;85.70;;;;;;5000364;28;20530;-76
2022/01/15 07:22:03;;;;;;;26.80;11.07;;;3.30;85.80;;;;;;4998479;28;20034;-75
2022/01/15 07:24:29;;;;;;;22.13;9.35;;;3.20;85.50;;;;;;4997897;28;20033;-74
2022/01/15 07:26:55;;;;;;;20.67;9.30;;;3.20;85.60;;;;;;4999117;28;20038;-75
2022/01/15 07:29:22;;;;;;;21.55;9.52;;;3.20;85.90;;;;;;5000337;28;20477;-75
2022/01/15 07:31:48;;;;;;;22.33;9.98;;;3.10;85.90;;;;;;4999919;28;20030;-74
2022/01/15 07:34:15;;;;;;;21.13;9.13;;;3.20;86.30;;;;;;4999434;28;20065;-75
2022/01/15 07:36:41;;;;;;;20.30;8.38;;;3.10;86.30;;;;;;4995678;28;20084;-72
2022/01/15 07:39:08;;;;;;;24.90;10.55;;;3.20;86.60;;;;;;4999736;28;20037;-76
2022/01/15 07:41:34;;;;;;;23.85;9.85;;;3.20;86.40;;;;;;4999437;28;20121;-76
2022/01/15 07:44:00;;;;;;;21.35;9.38;;;3.10;86.30;;;;;;4999208;28;20429;-76
2022/01/15 07:46:26;;;;;;;22.02;9.40;;;3.10;86.90;;;;;;5000416;28;20034;-76
2022/01/15 07:48:52;;;;;;;20.00;8.93;;;3.20;86.40;;;;;;4996820;28;20118;-77
2022/01/15 07:51:18;;;;;;;18.75;8.90;;;3.10;86.60;;;;;;4999008;28;20092;-76
2022/01/15 07:53:44;;;;;;;20.90;8.38;;;3.10;86.30;;;;;;4999113;28;20023;-76
2022/01/15 07:56:09;;;;;;;20.35;8.27;;;3.20;86.90;;;;;;4997379;28;20041;-76
2022/01/15 07:58:35;;;;;;;17.17;7.70;;;3.30;86.60;;;;;;5002347;28;20034;-76
2022/01/15 08:01:01;;;;;;;16.95;7.82;;;3.30;86.70;;;;;;4996315;28;20034;-76
2022/01/15 08:03:26;;;;;;;22.13;7.97;;;3.40;86.50;;;;;;4996963;28;20105;-76
2022/01/15 08:05:52;;;;;;;22.45;9.52;;;3.40;86.60;;;;;;4998623;28;20473;-76
2022/01/15 08:08:18;;;;;;;19.95;8.68;;;3.40;86.60;;;;;;4999247;28;20081;-76
2022/01/15 08:10:44;;;;;;;18.63;7.75;;;3.40;86.60;;;;;;4999482;28;20485;-76
2022/01/15 08:13:10;;;;;;;16.63;8.15;;;3.40;86.20;;;;;;4998286;28;20049;-76
2022/01/15 08:15:36;;;;;;;16.75;8.02;;;3.40;87.40;;;;;;4995909;28;20038;-76
2022/01/15 08:18:02;;;;;;;19.30;8.20;;;3.40;86.40;;;;;;4998374;28;20030;-75
2022/01/15 08:20:28;;;;;;;16.65;7.53;;;3.40;86.00;;;;;;4998878;28;20034;-76
2022/01/15 08:22:54;;;;;;;19.23;8.15;;;3.50;86.30;;;;;;4999184;28;20030;-76
2022/01/15 08:25:20;;;;;;;16.83;7.88;;;3.50;86.00;;;;;;4998876;28;20041;-76
2022/01/15 08:27:46;;;;;;;19.33;8.18;;;3.50;86.30;;;;;;4996511;28;20054;-76
2022/01/15 08:30:12;;;;;;;18.55;8.05;;;3.50;86.00;;;;;;5008533;28;20030;-76
2022/01/15 08:32:38;;;;;;;17.38;7.28;;;3.50;86.50;;;;;;4996083;28;20050;-76
2022/01/15 08:35:08;;;;;;;16.42;7.32;;;3.50;86.40;;;;;;4994456;28;20408;-76
2022/01/15 08:37:37;;;;;;;19.23;7.63;;;3.50;86.50;;;;;;4996229;28;20034;-76
2022/01/15 08:40:04;;;;;;;18.95;8.27;;;3.50;86.40;;;;;;4997164;28;20068;-76
2022/01/15 08:42:29;;;;;;;18.33;7.43;;;3.50;86.40;;;;;;4995798;28;20026;-76
2022/01/15 08:44:55;;;;;;;19.98;9.00;;;3.50;86.00;;;;;;5006810;28;20029;-73
2022/01/15 08:47:21;;;;;;;19.20;8.32;;;3.50;86.50;;;;;;5008236;28;20049;-75
2022/01/15 08:49:46;;;;;;;17.88;7.93;;;3.50;86.30;;;;;;5019651;28;20068;-75
2022/01/15 08:52:12;;;;;;;19.65;8.75;;;3.60;86.60;;;;;;5018344;28;20045;-75
2022/01/15 08:54:38;;;;;;;20.08;7.85;;;3.60;86.70;;;;;;5019858;28;20480;-76
2022/01/15 08:57:04;;;;;;;20.63;8.75;;;3.60;86.50;;;;;;5001519;28;20030;-76
2022/01/15 08:59:30;;;;;;;19.17;8.38;;;3.60;86.40;;;;;;4996945;28;20505;-75
2022/01/15 09:01:57;;;;;;;19.02;8.88;;;3.60;86.50;;;;;;4997282;28;20517;-76
2022/01/15 09:04:23;;;;;;;18.25;8.23;;;3.60;86.60;;;;;;4995478;28;20034;-76
2022/01/15 09:06:49;;;;;;;17.70;8.25;;;3.60;86.60;;;;;;4995842;28;20034;-75
2022/01/15 09:09:15;;;;;;;17.98;7.38;;;3.60;86.70;;;;;;4993151;28;20031;-76
2022/01/15 09:11:40;;;;;;;17.95;8.13;;;3.60;86.70;;;;;;4995585;28;20093;-75
2022/01/15 09:14:06;;;;;;;19.58;7.80;;;3.70;86.40;;;;;;4993004;28;20520;-74
2022/01/15 09:16:32;;;;;;;20.20;8.55;;;3.70;86.60;;;;;;4998858;28;20049;-77
2022/01/15 09:18:57;;;;;;;17.27;8.27;;;3.70;86.40;;;;;;4995154;28;20539;-76
2022/01/15 09:21:24;;;;;;;21.10;9.43;;;3.80;86.90;;;;;;4994482;28;20054;-76
2022/01/15 09:23:50;;;;;;;15.80;7.50;;;3.80;86.50;;;;;;4997976;28;20045;-75
2022/01/15 09:26:22;;;;;;;22.52;9.70;;;3.90;86.60;;;;;;4997971;28;20469;-77
2022/01/15 09:31:33;;;;;;;18.45;7.90;;;3.90;86.10;;;;;;4995397;28;20057;-75
2022/01/15 09:33:59;;;;;;;20.45;8.35;;;4.00;86.30;;;;;;4995731;28;20029;-76
2022/01/15 09:36:25;;;;;;;21.42;9.48;;;4.00;86.50;;;;;;4995424;28;20117;-76
2022/01/15 09:38:51;;;;;;;17.45;7.63;;;3.90;85.80;;;;;;4994678;28;20062;-76
2022/01/15 09:41:17;;;;;;;20.80;9.00;;;3.90;86.10;;;;;;4993563;28;20066;-76
2022/01/15 09:43:44;;;;;;;19.38;8.32;;;3.90;86.10;;;;;;4995058;28;20039;-72
2022/01/15 09:46:11;;;;;;;18.55;8.20;;;3.90;86.60;;;;;;4995278;28;20108;-72
2022/01/15 09:48:38;;;;;;;18.65;7.95;;;3.90;86.50;;;;;;4993529;28;20049;-72
2022/01/15 09:51:04;;;;;;;20.00;8.30;;;4.00;86.40;;;;;;5007821;28;20034;-77
2022/01/15 09:53:32;;;;;;;20.10;8.68;;;4.00;86.30;;;;;;4996438;28;20104;-78
2022/01/15 09:55:58;;;;;;;16.33;7.43;;;4.10;86.30;;;;;;4994694;28;20033;-75
2022/01/15 09:58:24;;;;;;;18.35;8.32;;;4.10;86.50;;;;;;4995169;28;20030;-77
2022/01/15 10:00:50;;;;;;;19.17;8.07;;;4.10;86.50;;;;;;4994714;28;20033;-78
2022/01/15 10:03:15;;;;;;;19.55;8.10;;;4.10;85.80;;;;;;4996559;28;20485;-78
2022/01/15 10:05:41;;;;;;;17.73;8.45;;;4.10;86.40;;;;;;4997819;28;20485;-79
2022/01/15 10:08:13;;;;;;;20.33;8.40;;;4.10;86.50;;;;;;4995258;28;20076;-78
2022/01/15 10:10:46;;;;;;;20.92;9.30;;;4.10;86.10;;;;;;5006660;28;20037;-79
2022/01/15 10:13:25;;;;;;;24.60;10.52;;;4.10;86.40;;;;;;5013727;28;20035;-74
2022/01/15 10:15:50;;;;;;;25.38;10.82;;;4.10;86.50;;;;;;5017022;28;20519;-74
2022/01/15 10:18:19;;;;;;;19.50;8.52;;;4.10;86.40;;;;;;5017955;28;20045;-74
2022/01/15 10:20:44;;;;;;;21.38;9.38;;;4.20;86.60;;;;;;5015797;28;20449;-74
2022/01/15 10:23:19;;;;;;;21.30;8.50;;;4.20;86.80;;;;;;5009609;28;20018;-75
2022/01/15 10:25:45;;;;;;;19.58;8.40;;;4.20;86.70;;;;;;5020810;28;20026;-74
2022/01/15 10:28:11;;;;;;;23.88;10.55;;;4.30;87.50;;;;;;5017004;28;20022;-80
2022/01/15 10:30:38;;;;;;;19.63;9.20;;;4.30;86.70;;;;;;5004947;28;22236;-79
2022/01/15 10:33:04;;;;;;;22.00;8.65;;;4.30;86.20;;;;;;4999951;28;20511;-80
2022/01/15 10:35:39;;;;;;;19.90;8.98;;;4.30;86.30;;;;;;5001258;28;20462;-79
2022/01/15 10:38:15;;;;;;;19.00;8.55;;;4.30;86.40;;;;;;4999793;28;20026;-79
2022/01/15 10:40:42;;;;;;;18.83;7.93;;;4.40;86.60;;;;;;5009197;28;20046;-80
2022/01/15 10:43:09;;;;;;;18.35;7.68;;;4.50;86.60;;;;;;4999658;28;20053;-74
2022/01/15 10:45:46;;;;;;;19.95;9.05;;;4.50;86.50;;;;;;5007227;28;20503;-73
2022/01/15 10:48:23;;;;;;;21.02;9.35;;;4.60;86.30;;;;;;5020065;28;20109;-70
2022/01/15 10:50:58;;;;;;;21.73;9.60;;;4.50;86.20;;;;;;4997601;28;20477;-73
2022/01/15 10:53:38;;;;;;;18.90;9.10;;;4.50;86.10;;;;;;5001615;28;20138;-72
2022/01/15 10:56:07;;;;;;;16.77;8.55;;;4.60;86.60;;;;;;5000671;28;20532;-72
2022/01/15 10:58:33;;;;;;;18.52;8.32;;;4.70;86.70;;;;;;5000499;28;20065;-72
2022/01/15 11:00:59;;;;;;;16.25;8.48;;;4.80;86.10;;;;;;4998152;28;20026;-72
2022/01/15 11:03:36;;;;;;;18.45;8.70;;;4.80;85.60;;;;;;4998484;28;20025;-73
2022/01/15 11:06:02;;;;;;;16.52;8.43;;;4.80;85.80;;;;;;4999627;28;20109;-72
2022/01/15 11:08:28;;;;;;;19.15;8.32;;;4.80;85.60;;;;;;5000189;28;20540;-73
2022/01/15 11:11:06;;;;;;;18.60;8.05;;;4.80;85.80;;;;;;4999253;28;20032;-73
2022/01/15 11:13:40;;;;;;;17.00;7.63;;;4.90;86.00;;;;;;5000678;28;20084;-73
2022/01/15 11:16:15;;;;;;;16.98;8.45;;;4.90;85.80;;;;;;4998120;28;20631;-73
2022/01/15 11:18:43;;;;;;;15.55;7.60;;;5.00;85.80;;;;;;4994644;28;20148;-72
2022/01/15 11:21:10;;;;;;;19.77;9.18;;;5.10;85.90;;;;;;4997622;28;20028;-71
2022/01/15 11:23:38;;;;;;;17.15;8.50;;;5.10;85.50;;;;;;4998416;28;20026;-72
2022/01/15 11:26:12;;;;;;;16.75;8.50;;;5.00;85.20;;;;;;5004928;28;20048;-69
2022/01/15 11:28:39;;;;;;;17.88;8.45;;;5.10;85.30;;;;;;5008405;28;20396;-73
2022/01/15 11:31:10;;;;;;;22.73;10.00;;;5.10;85.60;;;;;;4998145;28;20050;-73
2022/01/15 11:33:46;;;;;;;17.83;8.98;;;5.10;85.00;;;;;;5019661;28;20041;-72
2022/01/15 11:36:33;;;;;;;21.48;10.32;;;5.10;85.30;;;;;;5000449;28;20528;-73
2022/01/15 11:39:03;;;;;;;18.35;8.98;;;5.10;85.10;;;;;;4998696;28;20476;-74
2022/01/15 11:41:32;;;;;;;21.67;10.57;;;5.10;85.50;;;;;;4998635;28;20101;-75
2022/01/15 11:43:57;;;;;;;20.00;9.85;;;5.20;85.40;;;;;;5010257;28;20033;-79
2022/01/15 11:46:26;;;;;;;17.60;8.90;;;5.20;85.30;;;;;;5008517;28;20026;-75
2022/01/15 11:48:52;;;;;;;16.23;8.80;;;5.20;85.30;;;;;;4997245;28;20109;-75
2022/01/15 11:51:18;;;;;;;21.75;10.02;;;5.20;85.00;;;;;;4994684;28;20030;-73
2022/01/15 11:53:47;;;;;;;20.13;9.13;;;5.10;85.10;;;;;;4996542;28;20382;-74
2022/01/15 11:56:28;;;;;;;18.33;9.38;;;5.20;85.40;;;;;;4997281;28;20030;-73
2022/01/15 11:58:56;;;;;;;16.40;8.27;;;5.20;84.70;;;;;;4996943;28;20030;-74
2022/01/15 12:01:40;;;;;;;17.38;8.90;;;5.20;85.80;;;;;;5001338;28;20030;-74
2022/01/15 12:04:24;;;;;;;21.10;9.98;;;5.20;85.50;;;;;;5009694;28;20056;-72
2022/01/15 12:07:18;;;;;;;18.42;9.20;;;5.20;85.20;;;;;;5010789;28;20026;-74
2022/01/15 12:09:51;;;;;;;19.30;9.45;;;5.10;84.80;;;;;;4993363;28;20034;-72
2022/01/15 12:12:17;;;;;;;;;;;5.20;85.40;;;;;;5009627;28;20042;-73
2022/01/15 12:14:57;;;;;;;17.90;7.82;;;5.20;85.30;;;;;;5010802;28;19909;-74
2022/01/15 12:17:23;;;;;;;20.55;9.88;;;5.30;85.90;;;;;;4999474;28;20030;-77
2022/01/15 12:19:50;;;;;;;18.83;8.27;;;5.40;85.50;;;;;;5003324;28;20031;-68
2022/01/15 12:22:39;;;;;;;17.65;8.77;;;5.40;85.60;;;;;;5008312;28;20018;-77
2022/01/15 12:25:07;;;;;;;16.67;8.70;;;5.50;85.50;;;;;;4996459;28;20053;-77
2022/01/15 12:27:34;;;;;;;18.88;9.40;;;5.50;85.40;;;;;;4994700;28;20022;-78
2022/01/15 12:30:23;;;;;;;21.77;10.13;;;5.50;84.70;;;;;;5009774;28;20120;-78
2022/01/15 12:32:53;;;;;;;18.38;9.32;;;5.60;85.20;;;;;;4995846;28;20093;-69
2022/01/15 12:35:24;;;;;;;19.83;9.98;;;5.60;84.80;;;;;;5003446;28;20137;-71
2022/01/15 12:38:01;;;;;;;16.65;9.20;;;5.60;84.80;;;;;;5002980;28;20030;-75
2022/01/15 12:40:32;;;;;;;18.58;9.32;;;5.60;84.80;;;;;;5003684;28;20030;-77
2022/01/15 12:43:20;;;;;;;16.70;9.38;;;5.70;84.80;;;;;;5003405;28;20554;-77
2022/01/15 12:45:51;;;;;;;18.80;10.00;;;5.70;84.80;;;;;;4994538;28;20109;-77
2022/01/15 12:48:21;;;;;;;17.73;9.57;;;5.70;84.60;;;;;;4995685;28;20026;-72
2022/01/15 12:50:51;;;;;;;17.40;9.20;;;5.80;84.80;;;;;;4997783;28;20046;-77
2022/01/15 12:53:23;;;;;;;17.98;9.50;;;5.80;84.80;;;;;;5005330;28;20041;-77
2022/01/15 12:55:50;;;;;;;18.17;9.27;;;5.80;84.50;;;;;;5006671;28;20075;-78
2022/01/15 12:58:20;;;;;;;16.35;8.25;;;5.90;84.60;;;;;;5002161;28;20061;-78
2022/01/15 13:00:46;;;;;;;16.52;9.45;;;6.00;84.60;;;;;;5005874;28;20113;-70
2022/01/15 13:03:14;;;;;;;17.60;8.32;;;6.00;84.70;;;;;;5024821;28;20061;-71
2022/01/15 13:05:45;;;;;;;19.77;10.15;;;6.00;84.20;;;;;;4998225;28;20041;-75
2022/01/15 13:08:16;;;;;;;17.70;9.18;;;6.00;83.90;;;;;;4998162;28;20026;-74
2022/01/15 13:10:51;;;;;;;17.35;9.20;;;6.00;84.10;;;;;;5003417;28;20373;-72
2022/01/15 13:13:25;;;;;;;14.98;8.90;;;6.00;83.90;;;;;;4998360;28;20045;-77
2022/01/15 13:16:06;;;;;;;18.38;9.68;;;6.00;84.10;;;;;;5002824;28;20025;-74
2022/01/15 13:18:49;;;;;;;15.27;8.57;;;6.00;84.20;;;;;;4995118;28;20039;-74